sensor_id;sensor_type;location;lat;lon;timestamp;P1;durP1;ratioP1;P2;durP2;ratioP2
18125;SDS011;53956;52.442;13.284;2022-12-01T00:01:19;107.27;;;40.23;;
18125;SDS011;53956;52.442;13.284;2022-12-01T00:03:45;101.33;;;39.40;;
18125;SDS011;53956;52.442;13.284;2022-12-01T00:06:13;98.37;;;38.23;;
18125;SDS011;53956;52.442;13.284;2022-12-01T00:08:42;101.67;;;39.17;;
18125;SDS011;53956;52.442;13.284;2022-12-01T00:11:30;99.07;;;40.40;;
18125;SDS011;53956;52.442;13.284;2022-12-01T00:13:56;109.63;;;41.43;;
18125;SDS011;53956;52.442;13.284;2022-12-01T00:16:23;107.87;;;40.13;;
18125;SDS011;53956;52.442;13.284;2022-12-01T00:18:50;110.47;;;42.13;;
18125;SDS011;53956;52.442;13.284;2022-12-01T00:21:18;106.77;;;41.50;;
18125;SDS011;53956;52.442;13.284;2022-12-01T00:23:48;110.87;;;41.20;;
18125;SDS011;53956;52.442;13.284;2022-12-01T00:26:17;114.00;;;42.80;;
18125;SDS011;53956;52.442;13.284;2022-12-01T00:28:48;110.20;;;40.83;;
18125;SDS011;53956;52.442;13.284;2022-12-01T00:31:15;107.80;;;42.67;;
18125;SDS011;53956;52.442;13.284;2022-12-01T00:33:42;110.37;;;41.00;;
18125;SDS011;53956;52.442;13.284;2022-12-01T00:36:09;108.00;;;40.10;;
18125;SDS011;53956;52.442;13.284;2022-12-01T00:38:35;108.37;;;41.07;;
18125;SDS011;53956;52.442;13.284;2022-12-01T00:41:03;93.10;;;38.03;;
18125;SDS011;53956;52.442;13.284;2022-12-01T00:43:31;98.23;;;38.23;;
18125;SDS011;53956;52.442;13.284;2022-12-01T00:45:57;91.37;;;38.23;;
18125;SDS011;53956;52.442;13.284;2022-12-01T00:48:24;98.60;;;37.77;;
18125;SDS011;53956;52.442;13.284;2022-12-01T00:50:51;96.63;;;38.03;;
18125;SDS011;53956;52.442;13.284;2022-12-01T00:53:20;98.27;;;37.87;;
18125;SDS011;53956;52.442;13.284;2022-12-01T00:55:48;92.53;;;37.97;;
18125;SDS011;53956;52.442;13.284;2022-12-01T00:58:16;96.97;;;38.30;;
18125;SDS011;53956;52.442;13.284;2022-12-01T01:00:43;105.13;;;39.97;;
18125;SDS011;53956;52.442;13.284;2022-12-01T01:03:11;103.77;;;39.07;;
18125;SDS011;53956;52.442;13.284;2022-12-01T01:05:38;99.50;;;38.80;;
18125;SDS011;53956;52.442;13.284;2022-12-01T01:08:06;98.20;;;39.93;;
18125;SDS011;53956;52.442;13.284;2022-12-01T01:10:36;110.37;;;39.73;;
18125;SDS011;53956;52.442;13.284;2022-12-01T01:13:03;102.63;;;39.60;;
18125;SDS011;53956;52.442;13.284;2022-12-01T01:15:32;96.43;;;39.07;;
18125;SDS011;53956;52.442;13.284;2022-12-01T01:17:59;102.03;;;39.77;;
18125;SDS011;53956;52.442;13.284;2022-12-01T01:20:26;98.80;;;37.50;;
18125;SDS011;53956;52.442;13.284;2022-12-01T01:22:53;99.37;;;39.33;;
18125;SDS011;53956;52.442;13.284;2022-12-01T01:25:20;95.23;;;37.60;;
18125;SDS011;53956;52.442;13.284;2022-12-01T01:27:46;94.93;;;37.03;;
18125;SDS011;53956;52.442;13.284;2022-12-01T01:30:13;89.93;;;36.20;;
18125;SDS011;53956;52.442;13.284;2022-12-01T01:32:42;93.60;;;36.83;;
18125;SDS011;53956;52.442;13.284;2022-12-01T01:35:08;88.43;;;35.77;;
18125;SDS011;53956;52.442;13.284;2022-12-01T01:37:35;84.70;;;34.70;;
18125;SDS011;53956;52.442;13.284;2022-12-01T01:40:02;91.83;;;36.70;;
18125;SDS011;53956;52.442;13.284;2022-12-01T01:42:29;90.43;;;34.67;;
18125;SDS011;53956;52.442;13.284;2022-12-01T01:44:56;97.80;;;37.77;;
18125;SDS011;53956;52.442;13.284;2022-12-01T01:47:24;87.57;;;36.40;;
18125;SDS011;53956;52.442;13.284;2022-12-01T01:49:55;94.67;;;37.20;;
18125;SDS011;53956;52.442;13.284;2022-12-01T01:52:24;91.03;;;38.20;;
18125;SDS011;53956;52.442;13.284;2022-12-01T01:54:53;89.87;;;35.80;;
18125;SDS011;53956;52.442;13.284;2022-12-01T01:57:22;91.80;;;36.40;;
18125;SDS011;53956;52.442;13.284;2022-12-01T01:59:52;99.77;;;38.13;;
18125;SDS011;53956;52.442;13.284;2022-12-01T02:02:21;89.40;;;37.03;;
18125;SDS011;53956;52.442;13.284;2022-12-01T02:04:52;90.97;;;36.03;;
18125;SDS011;53956;52.442;13.284;2022-12-01T02:07:25;97.10;;;38.47;;
18125;SDS011;53956;52.442;13.284;2022-12-01T02:09:52;101.33;;;38.17;;
18125;SDS011;53956;52.442;13.284;2022-12-01T02:12:32;99.23;;;38.47;;
18125;SDS011;53956;52.442;13.284;2022-12-01T02:15:11;96.27;;;37.60;;
18125;SDS011;53956;52.442;13.284;2022-12-01T02:17:48;93.40;;;37.40;;
18125;SDS011;53956;52.442;13.284;2022-12-01T02:20:33;94.37;;;37.87;;
18125;SDS011;53956;52.442;13.284;2022-12-01T02:23:42;90.63;;;36.13;;
18125;SDS011;53956;52.442;13.284;2022-12-01T02:26:43;94.93;;;36.50;;
18125;SDS011;53956;52.442;13.284;2022-12-01T02:32:16;91.43;;;35.57;;
18125;SDS011;53956;52.442;13.284;2022-12-01T02:34:49;91.40;;;35.20;;
18125;SDS011;53956;52.442;13.284;2022-12-01T02:37:22;89.13;;;34.43;;
18125;SDS011;53956;52.442;13.284;2022-12-01T02:39:56;92.60;;;36.37;;
18125;SDS011;53956;52.442;13.284;2022-12-01T02:42:32;95.83;;;37.87;;
18125;SDS011;53956;52.442;13.284;2022-12-01T02:45:22;98.87;;;38.00;;
18125;SDS011;53956;52.442;13.284;2022-12-01T02:47:58;99.97;;;38.40;;
18125;SDS011;53956;52.442;13.284;2022-12-01T02:50:27;99.53;;;37.90;;
18125;SDS011;53956;52.442;13.284;2022-12-01T02:52:57;103.83;;;40.10;;
18125;SDS011;53956;52.442;13.284;2022-12-01T02:55:26;101.17;;;37.83;;
18125;SDS011;53956;52.442;13.284;2022-12-01T02:57:52;100.20;;;38.57;;
18125;SDS011;53956;52.442;13.284;2022-12-01T03:00:19;100.87;;;37.53;;
18125;SDS011;53956;52.442;13.284;2022-12-01T03:02:50;102.70;;;37.97;;
18125;SDS011;53956;52.442;13.284;2022-12-01T03:05:27;111.30;;;40.47;;
18125;SDS011;53956;52.442;13.284;2022-12-01T03:08:05;110.67;;;41.03;;
18125;SDS011;53956;52.442;13.284;2022-12-01T03:10:46;102.67;;;39.10;;
18125;SDS011;53956;52.442;13.284;2022-12-01T03:13:18;106.70;;;38.97;;
18125;SDS011;53956;52.442;13.284;2022-12-01T03:15:53;110.40;;;40.40;;
18125;SDS011;53956;52.442;13.284;2022-12-01T03:18:29;103.77;;;39.27;;
18125;SDS011;53956;52.442;13.284;2022-12-01T03:21:01;105.00;;;39.87;;
18125;SDS011;53956;52.442;13.284;2022-12-01T03:23:34;102.27;;;39.43;;
18125;SDS011;53956;52.442;13.284;2022-12-01T03:26:03;110.70;;;39.37;;
18125;SDS011;53956;52.442;13.284;2022-12-01T03:28:34;104.57;;;39.23;;
18125;SDS011;53956;52.442;13.284;2022-12-01T03:31:05;107.27;;;38.97;;
18125;SDS011;53956;52.442;13.284;2022-12-01T03:33:38;92.43;;;35.93;;
18125;SDS011;53956;52.442;13.284;2022-12-01T03:36:12;91.97;;;36.93;;
18125;SDS011;53956;52.442;13.284;2022-12-01T03:38:45;95.57;;;37.20;;
18125;SDS011;53956;52.442;13.284;2022-12-01T03:41:18;92.90;;;38.00;;
18125;SDS011;53956;52.442;13.284;2022-12-01T03:43:49;101.10;;;37.37;;
18125;SDS011;53956;52.442;13.284;2022-12-01T03:46:20;98.93;;;36.90;;
18125;SDS011;53956;52.442;13.284;2022-12-01T03:48:51;96.50;;;35.73;;
18125;SDS011;53956;52.442;13.284;2022-12-01T03:51:20;100.27;;;36.93;;
18125;SDS011;53956;52.442;13.284;2022-12-01T03:53:54;100.60;;;37.57;;
18125;SDS011;53956;52.442;13.284;2022-12-01T03:56:28;104.93;;;38.27;;
18125;SDS011;53956;52.442;13.284;2022-12-01T03:58:59;104.17;;;37.40;;
18125;SDS011;53956;52.442;13.284;2022-12-01T04:01:29;107.07;;;38.20;;
18125;SDS011;53956;52.442;13.284;2022-12-01T04:04:03;101.00;;;38.57;;
18125;SDS011;53956;52.442;13.284;2022-12-01T04:06:30;104.80;;;40.00;;
18125;SDS011;53956;52.442;13.284;2022-12-01T04:08:57;105.00;;;39.07;;
18125;SDS011;53956;52.442;13.284;2022-12-01T04:11:24;112.43;;;39.40;;
18125;SDS011;53956;52.442;13.284;2022-12-01T04:14:08;111.27;;;40.57;;
18125;SDS011;53956;52.442;13.284;2022-12-01T04:16:35;104.80;;;40.37;;
18125;SDS011;53956;52.442;13.284;2022-12-01T04:19:03;100.97;;;39.63;;
18125;SDS011;53956;52.442;13.284;2022-12-01T04:21:30;102.00;;;39.43;;
18125;SDS011;53956;52.442;13.284;2022-12-01T04:23:56;103.87;;;40.67;;
18125;SDS011;53956;52.442;13.284;2022-12-01T04:26:26;99.77;;;39.40;;
18125;SDS011;53956;52.442;13.284;2022-12-01T04:28:53;105.50;;;40.47;;
18125;SDS011;53956;52.442;13.284;2022-12-01T04:31:19;102.17;;;38.67;;
18125;SDS011;53956;52.442;13.284;2022-12-01T04:33:46;102.47;;;39.57;;
18125;SDS011;53956;52.442;13.284;2022-12-01T04:36:14;106.53;;;41.33;;
18125;SDS011;53956;52.442;13.284;2022-12-01T04:38:40;101.67;;;39.50;;
18125;SDS011;53956;52.442;13.284;2022-12-01T04:41:08;110.83;;;41.07;;
18125;SDS011;53956;52.442;13.284;2022-12-01T04:43:34;99.50;;;40.83;;
18125;SDS011;53956;52.442;13.284;2022-12-01T04:46:01;103.13;;;40.70;;
18125;SDS011;53956;52.442;13.284;2022-12-01T04:48:29;106.87;;;41.73;;
18125;SDS011;53956;52.442;13.284;2022-12-01T04:50:55;108.73;;;40.27;;
18125;SDS011;53956;52.442;13.284;2022-12-01T04:53:23;103.53;;;42.47;;
18125;SDS011;53956;52.442;13.284;2022-12-01T04:55:50;106.83;;;40.23;;
18125;SDS011;53956;52.442;13.284;2022-12-01T04:58:17;119.20;;;43.30;;
18125;SDS011;53956;52.442;13.284;2022-12-01T05:00:43;103.60;;;40.83;;
18125;SDS011;53956;52.442;13.284;2022-12-01T05:03:10;102.90;;;40.63;;
18125;SDS011;53956;52.442;13.284;2022-12-01T05:05:37;109.50;;;43.23;;
18125;SDS011;53956;52.442;13.284;2022-12-01T05:08:03;103.47;;;42.30;;
18125;SDS011;53956;52.442;13.284;2022-12-01T05:10:33;105.80;;;41.57;;
18125;SDS011;53956;52.442;13.284;2022-12-01T05:13:00;101.60;;;39.57;;
18125;SDS011;53956;52.442;13.284;2022-12-01T05:15:27;106.40;;;43.10;;
18125;SDS011;53956;52.442;13.284;2022-12-01T05:17:53;111.33;;;43.40;;
18125;SDS011;53956;52.442;13.284;2022-12-01T05:20:21;105.10;;;43.10;;
18125;SDS011;53956;52.442;13.284;2022-12-01T05:23:07;107.40;;;42.77;;
18125;SDS011;53956;52.442;13.284;2022-12-01T05:25:35;106.70;;;41.73;;
18125;SDS011;53956;52.442;13.284;2022-12-01T05:28:02;109.43;;;42.37;;
18125;SDS011;53956;52.442;13.284;2022-12-01T05:30:29;110.50;;;41.40;;
18125;SDS011;53956;52.442;13.284;2022-12-01T05:32:55;111.60;;;42.83;;
18125;SDS011;53956;52.442;13.284;2022-12-01T05:35:22;117.27;;;44.27;;
18125;SDS011;53956;52.442;13.284;2022-12-01T05:37:49;109.80;;;42.80;;
18125;SDS011;53956;52.442;13.284;2022-12-01T05:40:15;105.90;;;43.33;;
18125;SDS011;53956;52.442;13.284;2022-12-01T05:42:43;107.77;;;41.93;;
18125;SDS011;53956;52.442;13.284;2022-12-01T05:45:10;108.00;;;41.97;;
18125;SDS011;53956;52.442;13.284;2022-12-01T05:47:37;111.40;;;42.30;;
18125;SDS011;53956;52.442;13.284;2022-12-01T05:50:04;107.13;;;42.80;;
18125;SDS011;53956;52.442;13.284;2022-12-01T05:52:32;110.53;;;44.27;;
18125;SDS011;53956;52.442;13.284;2022-12-01T05:54:59;106.87;;;44.10;;
18125;SDS011;53956;52.442;13.284;2022-12-01T05:57:25;110.80;;;42.17;;
18125;SDS011;53956;52.442;13.284;2022-12-01T05:59:54;107.73;;;43.63;;
18125;SDS011;53956;52.442;13.284;2022-12-01T06:02:20;110.47;;;44.60;;
18125;SDS011;53956;52.442;13.284;2022-12-01T06:04:47;108.07;;;43.80;;
18125;SDS011;53956;52.442;13.284;2022-12-01T06:07:13;111.07;;;43.53;;
18125;SDS011;53956;52.442;13.284;2022-12-01T06:09:40;113.50;;;44.60;;
18125;SDS011;53956;52.442;13.284;2022-12-01T06:12:07;113.87;;;44.10;;
18125;SDS011;53956;52.442;13.284;2022-12-01T06:14:33;115.33;;;42.67;;
18125;SDS011;53956;52.442;13.284;2022-12-01T06:17:01;109.23;;;43.97;;
18125;SDS011;53956;52.442;13.284;2022-12-01T06:19:28;112.10;;;44.93;;
18125;SDS011;53956;52.442;13.284;2022-12-01T06:21:55;117.83;;;44.40;;
18125;SDS011;53956;52.442;13.284;2022-12-01T06:24:22;114.87;;;45.17;;
18125;SDS011;53956;52.442;13.284;2022-12-01T06:26:48;119.33;;;45.60;;
18125;SDS011;53956;52.442;13.284;2022-12-01T06:29:15;116.27;;;45.63;;
18125;SDS011;53956;52.442;13.284;2022-12-01T06:31:41;119.50;;;45.27;;
18125;SDS011;53956;52.442;13.284;2022-12-01T06:34:09;117.73;;;45.30;;
18125;SDS011;53956;52.442;13.284;2022-12-01T06:36:37;119.47;;;45.17;;
18125;SDS011;53956;52.442;13.284;2022-12-01T06:39:04;117.63;;;45.00;;
18125;SDS011;53956;52.442;13.284;2022-12-01T06:41:32;116.47;;;43.77;;
18125;SDS011;53956;52.442;13.284;2022-12-01T06:43:59;113.83;;;43.97;;
18125;SDS011;53956;52.442;13.284;2022-12-01T06:46:26;107.90;;;43.23;;
18125;SDS011;53956;52.442;13.284;2022-12-01T06:48:53;105.33;;;41.90;;
18125;SDS011;53956;52.442;13.284;2022-12-01T06:51:21;105.07;;;41.77;;
18125;SDS011;53956;52.442;13.284;2022-12-01T06:53:51;113.97;;;44.30;;
18125;SDS011;53956;52.442;13.284;2022-12-01T06:56:18;102.90;;;41.60;;
18125;SDS011;53956;52.442;13.284;2022-12-01T06:58:45;111.97;;;44.40;;
18125;SDS011;53956;52.442;13.284;2022-12-01T07:01:13;110.23;;;43.90;;
18125;SDS011;53956;52.442;13.284;2022-12-01T07:03:40;117.70;;;44.20;;
18125;SDS011;53956;52.442;13.284;2022-12-01T07:06:07;112.40;;;44.53;;
18125;SDS011;53956;52.442;13.284;2022-12-01T07:08:35;116.03;;;45.80;;
18125;SDS011;53956;52.442;13.284;2022-12-01T07:11:02;111.83;;;44.40;;
18125;SDS011;53956;52.442;13.284;2022-12-01T07:13:31;111.47;;;45.00;;
18125;SDS011;53956;52.442;13.284;2022-12-01T07:15:58;108.07;;;43.50;;
18125;SDS011;53956;52.442;13.284;2022-12-01T07:18:26;113.23;;;45.30;;
18125;SDS011;53956;52.442;13.284;2022-12-01T07:20:52;109.80;;;44.67;;
18125;SDS011;53956;52.442;13.284;2022-12-01T07:23:19;104.90;;;43.03;;
18125;SDS011;53956;52.442;13.284;2022-12-01T07:25:47;110.33;;;44.53;;
18125;SDS011;53956;52.442;13.284;2022-12-01T07:28:14;109.10;;;44.10;;
18125;SDS011;53956;52.442;13.284;2022-12-01T07:30:40;116.53;;;43.93;;
18125;SDS011;53956;52.442;13.284;2022-12-01T07:33:07;107.33;;;42.87;;
18125;SDS011;53956;52.442;13.284;2022-12-01T07:35:33;111.73;;;43.70;;
18125;SDS011;53956;52.442;13.284;2022-12-01T07:38:00;109.23;;;42.67;;
18125;SDS011;53956;52.442;13.284;2022-12-01T07:40:27;114.47;;;45.33;;
18125;SDS011;53956;52.442;13.284;2022-12-01T07:42:55;112.97;;;44.13;;
18125;SDS011;53956;52.442;13.284;2022-12-01T07:45:21;120.93;;;44.87;;
18125;SDS011;53956;52.442;13.284;2022-12-01T07:47:50;111.63;;;43.67;;
18125;SDS011;53956;52.442;13.284;2022-12-01T07:50:17;120.00;;;45.50;;
18125;SDS011;53956;52.442;13.284;2022-12-01T07:52:47;119.13;;;45.23;;
18125;SDS011;53956;52.442;13.284;2022-12-01T07:55:14;113.23;;;43.47;;
18125;SDS011;53956;52.442;13.284;2022-12-01T07:57:41;125.57;;;44.27;;
18125;SDS011;53956;52.442;13.284;2022-12-01T08:00:09;128.43;;;46.80;;
18125;SDS011;53956;52.442;13.284;2022-12-01T08:02:37;126.47;;;49.17;;
18125;SDS011;53956;52.442;13.284;2022-12-01T08:05:04;127.67;;;47.67;;
18125;SDS011;53956;52.442;13.284;2022-12-01T08:07:31;128.73;;;47.00;;
18125;SDS011;53956;52.442;13.284;2022-12-01T08:09:57;136.93;;;48.47;;
18125;SDS011;53956;52.442;13.284;2022-12-01T08:12:24;134.33;;;49.03;;
18125;SDS011;53956;52.442;13.284;2022-12-01T08:14:50;129.33;;;48.83;;
18125;SDS011;53956;52.442;13.284;2022-12-01T08:17:18;136.80;;;50.00;;
18125;SDS011;53956;52.442;13.284;2022-12-01T08:19:45;144.97;;;51.63;;
18125;SDS011;53956;52.442;13.284;2022-12-01T08:22:12;133.23;;;48.90;;
18125;SDS011;53956;52.442;13.284;2022-12-01T08:24:39;140.43;;;50.37;;
18125;SDS011;53956;52.442;13.284;2022-12-01T08:27:06;141.20;;;50.27;;
18125;SDS011;53956;52.442;13.284;2022-12-01T08:29:33;144.33;;;51.87;;
18125;SDS011;53956;52.442;13.284;2022-12-01T08:32:00;149.57;;;52.67;;
18125;SDS011;53956;52.442;13.284;2022-12-01T08:34:28;150.50;;;53.33;;
18125;SDS011;53956;52.442;13.284;2022-12-01T08:36:55;144.73;;;50.30;;
18125;SDS011;53956;52.442;13.284;2022-12-01T08:39:21;148.17;;;51.97;;
18125;SDS011;53956;52.442;13.284;2022-12-01T08:41:48;151.10;;;52.37;;
18125;SDS011;53956;52.442;13.284;2022-12-01T08:44:15;159.23;;;52.90;;
18125;SDS011;53956;52.442;13.284;2022-12-01T08:46:41;157.00;;;54.87;;
18125;SDS011;53956;52.442;13.284;2022-12-01T08:49:08;158.47;;;54.73;;
18125;SDS011;53956;52.442;13.284;2022-12-01T08:51:36;164.13;;;54.83;;
18125;SDS011;53956;52.442;13.284;2022-12-01T08:54:02;155.17;;;54.70;;
18125;SDS011;53956;52.442;13.284;2022-12-01T08:56:31;160.30;;;54.33;;
18125;SDS011;53956;52.442;13.284;2022-12-01T08:58:59;165.33;;;54.73;;
18125;SDS011;53956;52.442;13.284;2022-12-01T09:01:26;166.93;;;53.87;;
18125;SDS011;53956;52.442;13.284;2022-12-01T09:03:54;165.83;;;53.90;;
18125;SDS011;53956;52.442;13.284;2022-12-01T09:06:30;168.90;;;55.93;;
18125;SDS011;53956;52.442;13.284;2022-12-01T09:08:59;162.33;;;53.57;;
18125;SDS011;53956;52.442;13.284;2022-12-01T09:11:26;170.03;;;56.83;;
18125;SDS011;53956;52.442;13.284;2022-12-01T09:13:52;171.87;;;55.20;;
18125;SDS011;53956;52.442;13.284;2022-12-01T09:16:19;175.57;;;57.90;;
18125;SDS011;53956;52.442;13.284;2022-12-01T09:18:46;169.70;;;56.87;;
18125;SDS011;53956;52.442;13.284;2022-12-01T09:21:13;169.63;;;55.77;;
18125;SDS011;53956;52.442;13.284;2022-12-01T09:23:42;177.77;;;55.93;;
18125;SDS011;53956;52.442;13.284;2022-12-01T09:26:10;175.57;;;55.90;;
18125;SDS011;53956;52.442;13.284;2022-12-01T09:28:42;180.50;;;58.33;;
18125;SDS011;53956;52.442;13.284;2022-12-01T09:31:10;180.27;;;56.67;;
18125;SDS011;53956;52.442;13.284;2022-12-01T09:33:37;177.20;;;56.93;;
18125;SDS011;53956;52.442;13.284;2022-12-01T09:36:05;175.93;;;58.53;;
18125;SDS011;53956;52.442;13.284;2022-12-01T09:38:34;170.87;;;58.77;;
18125;SDS011;53956;52.442;13.284;2022-12-01T09:41:03;181.27;;;57.30;;
18125;SDS011;53956;52.442;13.284;2022-12-01T09:43:39;166.80;;;56.43;;
18125;SDS011;53956;52.442;13.284;2022-12-01T09:46:08;159.33;;;56.33;;
18125;SDS011;53956;52.442;13.284;2022-12-01T09:48:40;155.30;;;54.40;;
18125;SDS011;53956;52.442;13.284;2022-12-01T09:51:11;156.43;;;54.80;;
18125;SDS011;53956;52.442;13.284;2022-12-01T09:53:39;160.63;;;56.00;;
18125;SDS011;53956;52.442;13.284;2022-12-01T09:56:09;155.47;;;54.90;;
18125;SDS011;53956;52.442;13.284;2022-12-01T09:58:46;160.30;;;54.30;;
18125;SDS011;53956;52.442;13.284;2022-12-01T10:01:16;159.90;;;54.37;;
18125;SDS011;53956;52.442;13.284;2022-12-01T10:03:44;152.50;;;53.87;;
18125;SDS011;53956;52.442;13.284;2022-12-01T10:06:16;144.70;;;52.80;;
18125;SDS011;53956;52.442;13.284;2022-12-01T10:08:51;154.27;;;53.90;;
18125;SDS011;53956;52.442;13.284;2022-12-01T10:11:27;158.23;;;53.30;;
18125;SDS011;53956;52.442;13.284;2022-12-01T10:13:58;151.17;;;54.73;;
18125;SDS011;53956;52.442;13.284;2022-12-01T10:16:26;158.67;;;55.87;;
18125;SDS011;53956;52.442;13.284;2022-12-01T10:19:00;156.20;;;55.67;;
18125;SDS011;53956;52.442;13.284;2022-12-01T10:21:36;165.13;;;56.70;;
18125;SDS011;53956;52.442;13.284;2022-12-01T10:24:14;174.87;;;56.97;;
18125;SDS011;53956;52.442;13.284;2022-12-01T10:26:50;166.33;;;58.73;;
18125;SDS011;53956;52.442;13.284;2022-12-01T10:29:26;164.00;;;56.67;;
18125;SDS011;53956;52.442;13.284;2022-12-01T10:31:56;164.97;;;58.80;;
18125;SDS011;53956;52.442;13.284;2022-12-01T10:34:26;164.43;;;56.90;;
18125;SDS011;53956;52.442;13.284;2022-12-01T10:36:55;165.27;;;57.27;;
18125;SDS011;53956;52.442;13.284;2022-12-01T10:39:24;169.27;;;57.27;;
18125;SDS011;53956;52.442;13.284;2022-12-01T10:41:54;167.63;;;58.33;;
18125;SDS011;53956;52.442;13.284;2022-12-01T10:44:28;158.73;;;55.53;;
18125;SDS011;53956;52.442;13.284;2022-12-01T10:46:55;159.70;;;55.50;;
18125;SDS011;53956;52.442;13.284;2022-12-01T10:49:34;161.83;;;55.03;;
18125;SDS011;53956;52.442;13.284;2022-12-01T10:52:03;157.13;;;55.07;;
18125;SDS011;53956;52.442;13.284;2022-12-01T10:54:31;162.67;;;57.37;;
18125;SDS011;53956;52.442;13.284;2022-12-01T10:57:00;166.87;;;56.83;;
18125;SDS011;53956;52.442;13.284;2022-12-01T10:59:31;166.03;;;58.67;;
18125;SDS011;53956;52.442;13.284;2022-12-01T11:02:01;166.00;;;58.13;;
18125;SDS011;53956;52.442;13.284;2022-12-01T11:04:33;164.30;;;57.63;;
18125;SDS011;53956;52.442;13.284;2022-12-01T11:07:08;163.80;;;56.33;;
18125;SDS011;53956;52.442;13.284;2022-12-01T11:09:41;155.73;;;54.63;;
18125;SDS011;53956;52.442;13.284;2022-12-01T11:12:12;154.43;;;55.90;;
18125;SDS011;53956;52.442;13.284;2022-12-01T11:14:46;158.00;;;55.00;;
18125;SDS011;53956;52.442;13.284;2022-12-01T11:17:16;154.77;;;56.40;;
18125;SDS011;53956;52.442;13.284;2022-12-01T11:19:54;161.10;;;56.93;;
18125;SDS011;53956;52.442;13.284;2022-12-01T11:22:22;147.53;;;54.70;;
18125;SDS011;53956;52.442;13.284;2022-12-01T11:24:57;158.10;;;54.93;;
18125;SDS011;53956;52.442;13.284;2022-12-01T11:27:27;156.13;;;55.23;;
18125;SDS011;53956;52.442;13.284;2022-12-01T11:29:58;162.30;;;57.77;;
18125;SDS011;53956;52.442;13.284;2022-12-01T11:32:29;143.40;;;54.30;;
18125;SDS011;53956;52.442;13.284;2022-12-01T11:35:00;158.57;;;57.03;;
18125;SDS011;53956;52.442;13.284;2022-12-01T11:37:30;145.53;;;53.57;;
18125;SDS011;53956;52.442;13.284;2022-12-01T11:40:11;148.10;;;53.50;;
18125;SDS011;53956;52.442;13.284;2022-12-01T11:42:45;144.77;;;55.03;;
18125;SDS011;53956;52.442;13.284;2022-12-01T11:45:23;146.73;;;53.00;;
18125;SDS011;53956;52.442;13.284;2022-12-01T11:47:56;135.33;;;53.90;;
18125;SDS011;53956;52.442;13.284;2022-12-01T11:50:25;143.10;;;52.53;;
18125;SDS011;53956;52.442;13.284;2022-12-01T11:52:54;196.73;;;75.33;;
18125;SDS011;53956;52.442;13.284;2022-12-01T11:55:21;143.57;;;55.37;;
18125;SDS011;53956;52.442;13.284;2022-12-01T11:57:49;159.87;;;61.53;;
18125;SDS011;53956;52.442;13.284;2022-12-01T12:00:21;155.80;;;58.67;;
18125;SDS011;53956;52.442;13.284;2022-12-01T12:02:53;137.50;;;54.67;;
18125;SDS011;53956;52.442;13.284;2022-12-01T12:05:38;155.50;;;57.87;;
18125;SDS011;53956;52.442;13.284;2022-12-01T12:08:16;135.90;;;52.47;;
18125;SDS011;53956;52.442;13.284;2022-12-01T12:10:51;128.90;;;49.80;;
18125;SDS011;53956;52.442;13.284;2022-12-01T12:13:35;133.93;;;53.63;;
18125;SDS011;53956;52.442;13.284;2022-12-01T12:16:20;125.03;;;49.27;;
18125;SDS011;53956;52.442;13.284;2022-12-01T12:18:56;124.13;;;49.60;;
18125;SDS011;53956;52.442;13.284;2022-12-01T12:21:32;130.27;;;51.77;;
18125;SDS011;53956;52.442;13.284;2022-12-01T12:24:11;133.77;;;54.00;;
18125;SDS011;53956;52.442;13.284;2022-12-01T12:26:59;120.67;;;49.13;;
18125;SDS011;53956;52.442;13.284;2022-12-01T12:29:37;121.30;;;48.97;;
18125;SDS011;53956;52.442;13.284;2022-12-01T12:32:26;120.30;;;48.33;;
18125;SDS011;53956;52.442;13.284;2022-12-01T12:35:04;119.90;;;49.13;;
18125;SDS011;53956;52.442;13.284;2022-12-01T12:37:43;116.07;;;48.67;;
18125;SDS011;53956;52.442;13.284;2022-12-01T12:40:30;115.27;;;47.57;;
18125;SDS011;53956;52.442;13.284;2022-12-01T12:43:07;111.93;;;46.93;;
18125;SDS011;53956;52.442;13.284;2022-12-01T12:45:56;107.53;;;46.47;;
18125;SDS011;53956;52.442;13.284;2022-12-01T12:48:31;100.70;;;43.33;;
18125;SDS011;53956;52.442;13.284;2022-12-01T12:51:16;103.53;;;43.73;;
18125;SDS011;53956;52.442;13.284;2022-12-01T12:53:48;99.70;;;42.63;;
18125;SDS011;53956;52.442;13.284;2022-12-01T12:56:20;102.67;;;43.17;;
18125;SDS011;53956;52.442;13.284;2022-12-01T12:58:52;95.63;;;42.73;;
18125;SDS011;53956;52.442;13.284;2022-12-01T13:01:23;98.30;;;43.00;;
18125;SDS011;53956;52.442;13.284;2022-12-01T13:03:56;97.37;;;42.10;;
18125;SDS011;53956;52.442;13.284;2022-12-01T13:06:29;94.10;;;42.23;;
18125;SDS011;53956;52.442;13.284;2022-12-01T13:09:02;91.23;;;41.77;;
18125;SDS011;53956;52.442;13.284;2022-12-01T13:11:33;95.23;;;43.13;;
18125;SDS011;53956;52.442;13.284;2022-12-01T13:14:09;88.70;;;40.83;;
18125;SDS011;53956;52.442;13.284;2022-12-01T13:16:43;93.27;;;41.87;;
18125;SDS011;53956;52.442;13.284;2022-12-01T13:19:15;94.53;;;42.30;;
18125;SDS011;53956;52.442;13.284;2022-12-01T13:21:46;91.70;;;40.70;;
18125;SDS011;53956;52.442;13.284;2022-12-01T13:24:16;96.97;;;42.97;;
18125;SDS011;53956;52.442;13.284;2022-12-01T13:26:48;96.27;;;43.30;;
18125;SDS011;53956;52.442;13.284;2022-12-01T13:29:20;95.77;;;41.53;;
18125;SDS011;53956;52.442;13.284;2022-12-01T13:31:49;96.13;;;42.30;;
18125;SDS011;53956;52.442;13.284;2022-12-01T13:34:25;90.90;;;42.20;;
18125;SDS011;53956;52.442;13.284;2022-12-01T13:36:57;90.80;;;42.53;;
18125;SDS011;53956;52.442;13.284;2022-12-01T13:39:25;99.67;;;42.63;;
18125;SDS011;53956;52.442;13.284;2022-12-01T13:41:55;88.83;;;41.37;;
18125;SDS011;53956;52.442;13.284;2022-12-01T13:44:25;85.10;;;41.23;;
18125;SDS011;53956;52.442;13.284;2022-12-01T13:46:56;87.53;;;40.93;;
18125;SDS011;53956;52.442;13.284;2022-12-01T13:49:36;87.87;;;40.47;;
18125;SDS011;53956;52.442;13.284;2022-12-01T13:52:16;84.33;;;39.93;;
18125;SDS011;53956;52.442;13.284;2022-12-01T14:00:49;88.00;;;40.63;;
18125;SDS011;53956;52.442;13.284;2022-12-01T14:03:36;84.90;;;39.63;;
18125;SDS011;53956;52.442;13.284;2022-12-01T14:06:07;87.87;;;40.30;;
18125;SDS011;53956;52.442;13.284;2022-12-01T14:08:35;88.17;;;40.37;;
18125;SDS011;53956;52.442;13.284;2022-12-01T14:11:16;86.33;;;39.57;;
18125;SDS011;53956;52.442;13.284;2022-12-01T14:13:45;89.37;;;41.10;;
18125;SDS011;53956;52.442;13.284;2022-12-01T14:16:15;85.87;;;39.63;;
18125;SDS011;53956;52.442;13.284;2022-12-01T14:18:43;86.13;;;39.00;;
18125;SDS011;53956;52.442;13.284;2022-12-01T14:21:22;88.30;;;40.30;;
18125;SDS011;53956;52.442;13.284;2022-12-01T14:24:21;87.30;;;39.40;;
18125;SDS011;53956;52.442;13.284;2022-12-01T14:26:49;81.20;;;38.27;;